Flight Track Log - Related Links

Times and Time Zones

All times are in EDT time to prevent confusion due to time zone crossing. See the TAM3480 flight status page for this flight to view local times or setup timezone preferences in your user account.

Time Position Orientation Groundspeed Altitude Reporting Facility
EDT Latitude Longitude Course Direction KTS MPH feet Rate Location/Type
Wed 09:39:32 PM -15.8790 -47.9080 90° East 130 150 3,600  Level FlightAware
Wed 09:40:02 PM -15.8770 -47.8810 86° East 163 188 5,100 2,280 Climbing FlightAware
Wed 09:40:22 PM -15.8800 -47.8670 103° East 167 192 5,500 1,600 Climbing FlightAware
Wed 09:40:47 PM -15.8860 -47.8470 107° East 167 192 6,300 1,114 Climbing FlightAware
Wed 09:41:32 PM -15.8950 -47.8130 105° East 175 201 6,800 1,292 Climbing FlightAware
Wed 09:41:52 PM -15.8790 -47.7950 47° Northeast 197 227 7,700 2,229 Climbing FlightAware
Wed 09:42:07 PM -15.8670 -47.7780 54° Northeast 235 270 8,100 1,950 Climbing FlightAware
Wed 09:42:32 PM -15.8520 -47.7560 55° Northeast 242 278 9,000 2,057 Climbing FlightAware
Wed 09:43:17 PM -15.8240 -47.7150 55° Northeast 247 284 10,500 1,500 Climbing FlightAware
Wed 09:43:52 PM -15.7980 -47.6770 55° Northeast 294 338 11,000 776 Climbing FlightAware
Wed 09:44:42 PM -15.7540 -47.6100 56° Northeast 358 412 11,600 457 Climbing FlightAware
Wed 09:45:37 PM -15.7010 -47.5310 55° Northeast 383 441 11,800 1,074 Climbing FlightAware
Wed 09:46:17 PM -15.6610 -47.4700 56° Northeast 383 441 13,300 2,850 Climbing FlightAware
Wed 09:46:57 PM -15.6080 -47.3910 55° Northeast 409 471 15,600 1,950 Climbing FlightAware
Wed 09:47:37 PM -15.5700 -47.3330 56° Northeast 412 474 15,900 225 Climbing FlightAware
Wed 09:48:17 PM -15.5320 -47.2780 54° Northeast 412 474 15,900  Level FlightAware
Wed 09:48:57 PM -15.4950 -47.2230 55° Northeast 412 474 15,900  Level FlightAware
Wed 09:49:37 PM -15.4580 -47.1680 55° Northeast 412 474 15,900  Level FlightAware
Wed 09:50:27 PM -15.4120 -47.0990 55° Northeast 412 474 15,900  Level FlightAware
Wed 09:51:07 PM -15.3740 -47.0440 54° Northeast 412 474 15,900  Level FlightAware
Wed 09:53:00 PM -15.2863 -46.8641 63° Northeast  Level Estimated
Wed 09:54:00 PM -15.2397 -46.7687 63° Northeast  Level Estimated
Wed 09:55:00 PM -15.1931 -46.6733 63° Northeast  Level Estimated
Wed 09:56:00 PM -15.1464 -46.5779 63° Northeast  Level Estimated
Wed 09:57:00 PM -15.0997 -46.4826 63° Northeast  Level Estimated
Wed 09:58:00 PM -15.0529 -46.3873 63° Northeast  Level Estimated
Wed 09:59:00 PM -15.0061 -46.2920 63° Northeast  Level Estimated
Wed 10:00:00 PM -14.9592 -46.1968 63° Northeast  Level Estimated
Wed 10:01:00 PM -14.9123 -46.1017 63° Northeast  Level Estimated
Wed 10:02:00 PM -14.8654 -46.0066 63° Northeast  Level Estimated
Wed 10:03:00 PM -14.8185 -45.9115 63° Northeast  Level Estimated
Wed 10:04:00 PM -14.7715 -45.8165 63° Northeast  Level Estimated
Wed 10:05:00 PM -14.7244 -45.7215 63° Northeast  Level Estimated
Wed 10:06:00 PM -14.6774 -45.6265 63° Northeast  Level Estimated
Wed 10:07:00 PM -14.6302 -45.5316 63° Northeast  Level Estimated
Wed 10:08:00 PM -14.5831 -45.4368 63° Northeast  Level Estimated
Wed 10:09:00 PM -14.5359 -45.3419 63° Northeast  Level Estimated
Wed 10:10:00 PM -14.4887 -45.2471 63° Northeast  Level Estimated
Wed 10:11:00 PM -14.4414 -45.1524 63° Northeast  Level Estimated
Wed 10:12:00 PM -14.3941 -45.0577 63° Northeast  Level Estimated
Wed 10:13:00 PM -14.3467 -44.9630 63° Northeast  Level Estimated
Wed 10:14:00 PM -14.2993 -44.8684 63° Northeast  Level Estimated
Wed 10:15:00 PM -14.2519 -44.7738 63° Northeast  Level Estimated
Wed 10:16:00 PM -14.2045 -44.6792 63° Northeast  Level Estimated
Wed 10:17:00 PM -14.1570 -44.5847 63° Northeast  Level Estimated
Wed 10:18:00 PM -14.1094 -44.4903 63° Northeast  Level Estimated
Wed 10:19:00 PM -14.0619 -44.3958 63° Northeast  Level Estimated
Wed 10:20:00 PM -14.0142 -44.3014 63° Northeast  Level Estimated
Wed 10:21:00 PM -13.9666 -44.2071 63° Northeast  Level Estimated
Wed 10:22:00 PM -13.9189 -44.1128 62° Northeast  Level Estimated
Wed 10:23:00 PM -13.8712 -44.0185 62° Northeast  Level Estimated
Wed 10:24:00 PM -13.8235 -43.9243 62° Northeast  Level Estimated
Wed 10:25:00 PM -13.7757 -43.8301 62° Northeast  Level Estimated
Wed 10:26:00 PM -13.7278 -43.7359 62° Northeast  Level Estimated
Wed 10:27:00 PM -13.6800 -43.6418 62° Northeast  Level Estimated
Wed 10:28:00 PM -13.6321 -43.5477 62° Northeast  Level Estimated
Wed 10:29:00 PM -13.5842 -43.4537 62° Northeast  Level Estimated
Wed 10:30:00 PM -13.5362 -43.3597 62° Northeast  Level Estimated
Wed 10:31:00 PM -13.4882 -43.2657 62° Northeast  Level Estimated
Wed 10:32:00 PM -13.4402 -43.1718 62° Northeast  Level Estimated
Wed 10:33:00 PM -13.3921 -43.0779 62° Northeast  Level Estimated
Wed 10:34:00 PM -13.3440 -42.9841 62° Northeast  Level Estimated
Wed 10:35:00 PM -13.2959 -42.8903 62° Northeast  Level Estimated
Wed 10:36:00 PM -13.2477 -42.7965 62° Northeast  Level Estimated
Wed 10:37:00 PM -13.1995 -42.7027 62° Northeast  Level Estimated
Wed 10:38:00 PM -13.1512 -42.6090 62° Northeast  Level Estimated
Wed 10:39:00 PM -13.1030 -42.5154 62° Northeast  Level Estimated
Wed 10:40:00 PM -13.0547 -42.4217 62° Northeast  Level Estimated
Wed 10:41:00 PM -13.0063 -42.3281 62° Northeast  Level Estimated
Wed 10:42:00 PM -12.9579 -42.2346 62° Northeast  Level Estimated
Wed 10:43:00 PM -12.9095 -42.1411 62° Northeast  Level Estimated
Wed 10:44:00 PM -12.8611 -42.0476 62° Northeast  Level Estimated
Wed 10:45:00 PM -12.8126 -41.9541 62° Northeast  Level Estimated
Wed 10:46:00 PM -12.7641 -41.8607 62° Northeast  Level Estimated
Wed 10:47:00 PM -12.7156 -41.7673 62° Northeast  Level Estimated
Wed 10:48:00 PM -12.6670 -41.6740 62° Northeast  Level Estimated
Wed 10:49:00 PM -12.6184 -41.5807 62° Northeast  Level Estimated
Wed 10:50:00 PM -12.5697 -41.4874 62° Northeast  Level Estimated
Wed 10:51:00 PM -12.5211 -41.3942 62° Northeast  Level Estimated
Wed 10:52:00 PM -12.4724 -41.3010 62° Northeast  Level Estimated
Wed 10:53:00 PM -12.4236 -41.2078 62° Northeast  Level Estimated
Wed 10:54:00 PM -12.3749 -41.1147 62° Northeast  Level Estimated
Wed 10:55:00 PM -12.3260 -41.0216 62° Northeast  Level Estimated
Wed 10:56:00 PM -12.2772 -40.9286 62° Northeast  Level Estimated
Wed 10:57:00 PM -12.2284 -40.8355 62° Northeast  Level Estimated
Wed 10:58:00 PM -12.1795 -40.7425 62° Northeast  Level Estimated
Wed 10:59:00 PM -12.1306 -40.6496 62° Northeast  Level Estimated
Wed 11:00:00 PM -12.0816 -40.5567 62° Northeast  Level Estimated
Wed 11:01:00 PM -12.0326 -40.4638 62° Northeast  Level Estimated
Wed 11:02:00 PM -11.9836 -40.3709 62° Northeast  Level Estimated
Wed 11:03:00 PM -11.9345 -40.2781 62° Northeast  Level Estimated
Wed 11:04:00 PM -11.8855 -40.1853 62° Northeast  Level Estimated
Wed 11:05:00 PM -11.8363 -40.0926 62° Northeast  Level Estimated
Wed 11:06:00 PM -11.7872 -39.9999 62° Northeast  Level Estimated
Wed 11:07:00 PM -11.7380 -39.9072 62° Northeast  Level Estimated
Wed 11:08:00 PM -11.6888 -39.8145 62° Northeast  Level Estimated
Wed 11:09:00 PM -11.6396 -39.7219 62° Northeast  Level Estimated
Wed 11:10:00 PM -11.5903 -39.6293 62° Northeast  Level Estimated
Wed 11:11:00 PM -11.5410 -39.5367 61° Northeast  Level Estimated
Wed 11:12:00 PM -11.4917 -39.4442 61° Northeast  Level Estimated
Wed 11:13:00 PM -11.4424 -39.3517 61° Northeast  Level Estimated
Wed 11:14:00 PM -11.3930 -39.2593 61° Northeast  Level Estimated
Wed 11:15:00 PM -11.3436 -39.1668 61° Northeast  Level Estimated
Wed 11:16:00 PM -11.2942 -39.0745 61° Northeast  Level Estimated
Wed 11:17:00 PM -11.2447 -38.9821 61° Northeast  Level Estimated
Wed 11:18:00 PM -11.1952 -38.8898 61° Northeast  Level Estimated
Wed 11:19:00 PM -11.1457 -38.7975 61° Northeast  Level Estimated
Wed 11:20:00 PM -11.0962 -38.7052 61° Northeast  Level Estimated
Wed 11:21:00 PM -11.0466 -38.6129 61° Northeast  Level Estimated
Wed 11:22:00 PM -10.9970 -38.5207 61° Northeast  Level Estimated
Wed 11:23:00 PM -10.9474 -38.4286 61° Northeast  Level Estimated
Wed 11:24:00 PM -10.8977 -38.3364 61° Northeast  Level Estimated
Wed 11:25:00 PM -10.8480 -38.2443 61° Northeast  Level Estimated
Wed 11:26:00 PM -10.7983 -38.1522 61° Northeast  Level Estimated
Wed 11:27:00 PM -10.7486 -38.0602 61° Northeast  Level Estimated
Wed 11:28:00 PM -10.6988 -37.9682 61° Northeast  Level Estimated
Wed 11:29:00 PM -10.6490 -37.8762 61° Northeast  Level Estimated
Wed 11:30:00 PM -10.5992 -37.7842 61° Northeast  Level Estimated
Wed 11:31:00 PM -10.5493 -37.6923 61° Northeast  Level Estimated
Wed 11:32:00 PM -10.4995 -37.6004 61° Northeast  Level Estimated
Wed 11:33:00 PM -10.4496 -37.5085 61° Northeast  Level Estimated
Wed 11:34:00 PM -10.3996 -37.4167 61° Northeast  Level Estimated
Wed 11:35:00 PM -10.3497 -37.3249 61° Northeast  Level Estimated
Wed 11:36:00 PM -10.2997 -37.2331 61° Northeast  Level Estimated
Wed 11:37:00 PM -10.2497 -37.1413 61° Northeast  Level Estimated
Wed 11:38:00 PM -10.1997 -37.0496 61° Northeast  Level Estimated
Wed 11:39:00 PM -10.1496 -36.9579 61° Northeast  Level Estimated
Wed 11:40:00 PM -10.0996 -36.8662 61° Northeast  Level Estimated
Wed 11:41:00 PM -10.0494 -36.7746 61° Northeast  Level Estimated
Wed 11:42:00 PM -9.9993 -36.6830 61° Northeast  Level Estimated
Wed 11:43:00 PM -9.9492 -36.5914 61° Northeast  Level Estimated
Wed 11:44:00 PM -9.8990 -36.4998 61° Northeast  Level Estimated
Wed 11:45:00 PM -9.8488 -36.4083 61° Northeast  Level Estimated
Wed 11:46:00 PM -9.7985 -36.3168 61° Northeast  Level Estimated
Wed 11:47:00 PM -9.7483 -36.2253 61° Northeast  Level Estimated
Wed 11:48:00 PM -9.6980 -36.1339 61° Northeast  Level Estimated

Login

Don't have an account? Register now (free) for customized features, flight alerts, and more!